sensor_id;sensor_type;location;lat;lon;timestamp;P1;durP1;ratioP1;P2;durP2;ratioP2
2289;SDS011;1153;47.986;7.898;2024-03-06T00:01:47;0.80;;;0.60;;
2289;SDS011;1153;47.986;7.898;2024-03-06T00:04:12;2.20;;;0.70;;
2289;SDS011;1153;47.986;7.898;2024-03-06T00:06:37;1.00;;;0.80;;
2289;SDS011;1153;47.986;7.898;2024-03-06T00:09:02;0.88;;;0.65;;
2289;SDS011;1153;47.986;7.898;2024-03-06T00:11:28;1.13;;;0.60;;
2289;SDS011;1153;47.986;7.898;2024-03-06T00:13:53;1.00;;;0.70;;
2289;SDS011;1153;47.986;7.898;2024-03-06T00:16:18;1.23;;;0.77;;
2289;SDS011;1153;47.986;7.898;2024-03-06T00:18:43;0.95;;;0.60;;
2289;SDS011;1153;47.986;7.898;2024-03-06T00:21:08;1.20;;;1.00;;
2289;SDS011;1153;47.986;7.898;2024-03-06T00:23:34;1.00;;;0.57;;
2289;SDS011;1153;47.986;7.898;2024-03-06T00:26:00;1.00;;;0.60;;
2289;SDS011;1153;47.986;7.898;2024-03-06T00:28:30;1.10;;;0.70;;
2289;SDS011;1153;47.986;7.898;2024-03-06T00:30:55;1.10;;;0.90;;
2289;SDS011;1153;47.986;7.898;2024-03-06T00:33:21;0.90;;;0.50;;
2289;SDS011;1153;47.986;7.898;2024-03-06T00:35:46;1.00;;;0.60;;
2289;SDS011;1153;47.986;7.898;2024-03-06T00:38:12;0.90;;;0.63;;
2289;SDS011;1153;47.986;7.898;2024-03-06T00:40:38;0.93;;;0.83;;
2289;SDS011;1153;47.986;7.898;2024-03-06T00:43:03;1.10;;;0.83;;
2289;SDS011;1153;47.986;7.898;2024-03-06T00:45:28;1.00;;;0.80;;
2289;SDS011;1153;47.986;7.898;2024-03-06T00:47:53;1.02;;;0.70;;
2289;SDS011;1153;47.986;7.898;2024-03-06T00:50:19;1.13;;;0.90;;
2289;SDS011;1153;47.986;7.898;2024-03-06T00:52:47;4.20;;;0.73;;
2289;SDS011;1153;47.986;7.898;2024-03-06T00:55:12;0.80;;;0.43;;
2289;SDS011;1153;47.986;7.898;2024-03-06T00:57:37;0.93;;;0.73;;
2289;SDS011;1153;47.986;7.898;2024-03-06T01:00:02;5.30;;;0.60;;
2289;SDS011;1153;47.986;7.898;2024-03-06T01:02:35;2.07;;;0.50;;
2289;SDS011;1153;47.986;7.898;2024-03-06T01:05:01;1.50;;;1.00;;
2289;SDS011;1153;47.986;7.898;2024-03-06T01:07:26;1.13;;;0.73;;
2289;SDS011;1153;47.986;7.898;2024-03-06T01:09:51;1.17;;;0.90;;
2289;SDS011;1153;47.986;7.898;2024-03-06T01:12:16;3.53;;;1.00;;
2289;SDS011;1153;47.986;7.898;2024-03-06T01:14:43;1.00;;;0.80;;
2289;SDS011;1153;47.986;7.898;2024-03-06T01:17:08;0.93;;;0.70;;
2289;SDS011;1153;47.986;7.898;2024-03-06T01:19:34;1.03;;;0.90;;
2289;SDS011;1153;47.986;7.898;2024-03-06T01:21:59;1.33;;;1.23;;
2289;SDS011;1153;47.986;7.898;2024-03-06T01:24:24;1.25;;;0.82;;
2289;SDS011;1153;47.986;7.898;2024-03-06T01:26:49;0.90;;;0.70;;
2289;SDS011;1153;47.986;7.898;2024-03-06T01:29:14;1.65;;;1.55;;
2289;SDS011;1153;47.986;7.898;2024-03-06T01:31:39;1.00;;;0.90;;
2289;SDS011;1153;47.986;7.898;2024-03-06T01:34:04;1.20;;;0.77;;
2289;SDS011;1153;47.986;7.898;2024-03-06T01:36:30;1.10;;;0.77;;
2289;SDS011;1153;47.986;7.898;2024-03-06T01:38:55;2.10;;;0.50;;
2289;SDS011;1153;47.986;7.898;2024-03-06T01:41:20;0.90;;;0.67;;
2289;SDS011;1153;47.986;7.898;2024-03-06T01:43:45;0.87;;;0.57;;
2289;SDS011;1153;47.986;7.898;2024-03-06T01:46:12;2.90;;;0.70;;
2289;SDS011;1153;47.986;7.898;2024-03-06T01:48:37;1.03;;;0.73;;
2289;SDS011;1153;47.986;7.898;2024-03-06T01:51:03;0.93;;;0.57;;
2289;SDS011;1153;47.986;7.898;2024-03-06T01:53:30;0.93;;;0.60;;
2289;SDS011;1153;47.986;7.898;2024-03-06T01:55:56;1.10;;;0.60;;
2289;SDS011;1153;47.986;7.898;2024-03-06T01:58:22;0.87;;;0.60;;
2289;SDS011;1153;47.986;7.898;2024-03-06T02:00:49;2.07;;;0.70;;
2289;SDS011;1153;47.986;7.898;2024-03-06T02:03:14;1.67;;;1.07;;
2289;SDS011;1153;47.986;7.898;2024-03-06T02:05:40;1.10;;;0.70;;
2289;SDS011;1153;47.986;7.898;2024-03-06T02:08:05;1.23;;;0.90;;
2289;SDS011;1153;47.986;7.898;2024-03-06T02:16:37;1.30;;;0.80;;
2289;SDS011;1153;47.986;7.898;2024-03-06T02:19:04;2.97;;;0.80;;
2289;SDS011;1153;47.986;7.898;2024-03-06T02:21:29;1.30;;;0.83;;
2289;SDS011;1153;47.986;7.898;2024-03-06T02:23:54;1.10;;;0.80;;
2289;SDS011;1153;47.986;7.898;2024-03-06T02:26:20;1.00;;;0.70;;
2289;SDS011;1153;47.986;7.898;2024-03-06T02:28:48;3.03;;;1.00;;
2289;SDS011;1153;47.986;7.898;2024-03-06T02:31:15;1.53;;;0.77;;
2289;SDS011;1153;47.986;7.898;2024-03-06T02:33:40;0.90;;;0.80;;
2289;SDS011;1153;47.986;7.898;2024-03-06T02:36:05;1.17;;;0.95;;
2289;SDS011;1153;47.986;7.898;2024-03-06T02:38:30;0.90;;;0.60;;
2289;SDS011;1153;47.986;7.898;2024-03-06T02:40:56;2.93;;;0.97;;
2289;SDS011;1153;47.986;7.898;2024-03-06T02:43:21;1.10;;;0.88;;
2289;SDS011;1153;47.986;7.898;2024-03-06T02:45:46;1.10;;;0.73;;
2289;SDS011;1153;47.986;7.898;2024-03-06T02:48:11;1.10;;;0.70;;
2289;SDS011;1153;47.986;7.898;2024-03-06T02:50:36;0.90;;;0.60;;
2289;SDS011;1153;47.986;7.898;2024-03-06T02:53:02;2.23;;;0.70;;
2289;SDS011;1153;47.986;7.898;2024-03-06T02:55:27;4.50;;;1.00;;
2289;SDS011;1153;47.986;7.898;2024-03-06T02:57:52;1.05;;;0.77;;
2289;SDS011;1153;47.986;7.898;2024-03-06T03:00:17;1.20;;;0.90;;
2289;SDS011;1153;47.986;7.898;2024-03-06T03:02:43;1.13;;;1.03;;
2289;SDS011;1153;47.986;7.898;2024-03-06T03:05:08;3.43;;;0.90;;
2289;SDS011;1153;47.986;7.898;2024-03-06T03:07:33;1.20;;;1.00;;
2289;SDS011;1153;47.986;7.898;2024-03-06T03:09:59;1.50;;;0.80;;
2289;SDS011;1153;47.986;7.898;2024-03-06T03:12:24;1.57;;;0.93;;
2289;SDS011;1153;47.986;7.898;2024-03-06T03:14:49;1.73;;;1.63;;
2289;SDS011;1153;47.986;7.898;2024-03-06T03:17:14;1.30;;;1.00;;
2289;SDS011;1153;47.986;7.898;2024-03-06T03:19:40;2.20;;;1.03;;
2289;SDS011;1153;47.986;7.898;2024-03-06T03:22:05;1.53;;;1.30;;
2289;SDS011;1153;47.986;7.898;2024-03-06T03:24:30;1.40;;;1.30;;
2289;SDS011;1153;47.986;7.898;2024-03-06T03:26:56;4.40;;;1.50;;
2289;SDS011;1153;47.986;7.898;2024-03-06T03:29:21;5.57;;;1.50;;
2289;SDS011;1153;47.986;7.898;2024-03-06T03:31:46;4.13;;;1.80;;
2289;SDS011;1153;47.986;7.898;2024-03-06T03:34:11;3.53;;;1.73;;
2289;SDS011;1153;47.986;7.898;2024-03-06T03:36:40;1.23;;;1.13;;
2289;SDS011;1153;47.986;7.898;2024-03-06T03:39:06;2.17;;;2.07;;
2289;SDS011;1153;47.986;7.898;2024-03-06T03:41:33;1.30;;;1.20;;
2289;SDS011;1153;47.986;7.898;2024-03-06T03:43:58;1.03;;;0.90;;
2289;SDS011;1153;47.986;7.898;2024-03-06T03:46:24;1.00;;;0.70;;
2289;SDS011;1153;47.986;7.898;2024-03-06T03:48:49;1.43;;;0.70;;
2289;SDS011;1153;47.986;7.898;2024-03-06T03:51:15;0.90;;;0.70;;
2289;SDS011;1153;47.986;7.898;2024-03-06T03:53:40;2.80;;;0.87;;
2289;SDS011;1153;47.986;7.898;2024-03-06T03:56:05;1.13;;;1.03;;
2289;SDS011;1153;47.986;7.898;2024-03-06T03:58:31;1.33;;;0.87;;
2289;SDS011;1153;47.986;7.898;2024-03-06T04:00:56;1.17;;;0.70;;
2289;SDS011;1153;47.986;7.898;2024-03-06T04:03:22;1.10;;;0.50;;
2289;SDS011;1153;47.986;7.898;2024-03-06T04:05:48;1.70;;;0.50;;
2289;SDS011;1153;47.986;7.898;2024-03-06T04:08:13;1.37;;;0.73;;
2289;SDS011;1153;47.986;7.898;2024-03-06T04:10:38;4.20;;;0.80;;
2289;SDS011;1153;47.986;7.898;2024-03-06T04:13:03;1.17;;;0.70;;
2289;SDS011;1153;47.986;7.898;2024-03-06T04:15:28;2.97;;;0.80;;
2289;SDS011;1153;47.986;7.898;2024-03-06T04:17:54;2.60;;;0.53;;
2289;SDS011;1153;47.986;7.898;2024-03-06T04:20:19;1.10;;;0.63;;
2289;SDS011;1153;47.986;7.898;2024-03-06T04:22:44;1.80;;;0.50;;
2289;SDS011;1153;47.986;7.898;2024-03-06T04:25:11;3.43;;;0.60;;
2289;SDS011;1153;47.986;7.898;2024-03-06T04:27:36;0.90;;;0.80;;
2289;SDS011;1153;47.986;7.898;2024-03-06T04:30:01;0.63;;;0.33;;
2289;SDS011;1153;47.986;7.898;2024-03-06T04:32:27;0.70;;;0.40;;
2289;SDS011;1153;47.986;7.898;2024-03-06T04:34:52;1.30;;;0.80;;
2289;SDS011;1153;47.986;7.898;2024-03-06T04:37:18;2.30;;;0.67;;
2289;SDS011;1153;47.986;7.898;2024-03-06T04:39:44;1.20;;;0.60;;
2289;SDS011;1153;47.986;7.898;2024-03-06T04:42:09;1.07;;;0.60;;
2289;SDS011;1153;47.986;7.898;2024-03-06T04:44:34;0.60;;;0.57;;
2289;SDS011;1153;47.986;7.898;2024-03-06T04:47:00;2.97;;;0.60;;
2289;SDS011;1153;47.986;7.898;2024-03-06T04:49:25;2.20;;;0.60;;
2289;SDS011;1153;47.986;7.898;2024-03-06T04:51:50;0.90;;;0.73;;
2289;SDS011;1153;47.986;7.898;2024-03-06T04:54:15;1.03;;;0.50;;
2289;SDS011;1153;47.986;7.898;2024-03-06T04:56:40;4.23;;;0.70;;
2289;SDS011;1153;47.986;7.898;2024-03-06T04:59:05;0.90;;;0.50;;
2289;SDS011;1153;47.986;7.898;2024-03-06T05:01:30;0.80;;;0.50;;
2289;SDS011;1153;47.986;7.898;2024-03-06T05:03:56;0.90;;;0.50;;
2289;SDS011;1153;47.986;7.898;2024-03-06T05:06:22;0.90;;;0.40;;
2289;SDS011;1153;47.986;7.898;2024-03-06T05:08:47;4.90;;;0.70;;
2289;SDS011;1153;47.986;7.898;2024-03-06T05:11:12;0.73;;;0.50;;
2289;SDS011;1153;47.986;7.898;2024-03-06T05:13:37;1.00;;;0.50;;
2289;SDS011;1153;47.986;7.898;2024-03-06T05:16:03;1.00;;;0.50;;
2289;SDS011;1153;47.986;7.898;2024-03-06T05:18:28;0.90;;;0.53;;
2289;SDS011;1153;47.986;7.898;2024-03-06T05:20:53;4.15;;;0.60;;
2289;SDS011;1153;47.986;7.898;2024-03-06T05:23:19;2.37;;;2.10;;
2289;SDS011;1153;47.986;7.898;2024-03-06T05:25:44;6.93;;;4.80;;
2289;SDS011;1153;47.986;7.898;2024-03-06T05:28:09;2.25;;;2.05;;
2289;SDS011;1153;47.986;7.898;2024-03-06T05:30:35;1.10;;;0.80;;
2289;SDS011;1153;47.986;7.898;2024-03-06T05:33:00;1.60;;;0.80;;
2289;SDS011;1153;47.986;7.898;2024-03-06T05:35:25;0.70;;;0.60;;
2289;SDS011;1153;47.986;7.898;2024-03-06T05:37:50;1.00;;;0.50;;
2289;SDS011;1153;47.986;7.898;2024-03-06T05:40:15;0.80;;;0.40;;
2289;SDS011;1153;47.986;7.898;2024-03-06T05:42:40;1.47;;;0.50;;
2289;SDS011;1153;47.986;7.898;2024-03-06T05:45:07;1.03;;;0.53;;
2289;SDS011;1153;47.986;7.898;2024-03-06T05:47:35;2.90;;;0.50;;
2289;SDS011;1153;47.986;7.898;2024-03-06T05:50:00;0.70;;;0.40;;
2289;SDS011;1153;47.986;7.898;2024-03-06T05:52:29;3.53;;;0.40;;
2289;SDS011;1153;47.986;7.898;2024-03-06T05:54:54;0.70;;;0.40;;
2289;SDS011;1153;47.986;7.898;2024-03-06T05:57:19;0.90;;;0.50;;
2289;SDS011;1153;47.986;7.898;2024-03-06T05:59:44;1.00;;;0.50;;
2289;SDS011;1153;47.986;7.898;2024-03-06T06:02:10;0.95;;;0.70;;
2289;SDS011;1153;47.986;7.898;2024-03-06T06:04:35;0.70;;;0.40;;
2289;SDS011;1153;47.986;7.898;2024-03-06T06:07:00;0.87;;;0.40;;
2289;SDS011;1153;47.986;7.898;2024-03-06T06:09:25;1.33;;;1.03;;
2289;SDS011;1153;47.986;7.898;2024-03-06T06:11:50;1.02;;;0.40;;
2289;SDS011;1153;47.986;7.898;2024-03-06T06:14:16;0.50;;;0.30;;
2289;SDS011;1153;47.986;7.898;2024-03-06T06:16:41;0.73;;;0.40;;
2289;SDS011;1153;47.986;7.898;2024-03-06T06:19:07;1.40;;;0.70;;
2289;SDS011;1153;47.986;7.898;2024-03-06T06:21:32;0.80;;;0.63;;
2289;SDS011;1153;47.986;7.898;2024-03-06T06:23:58;0.97;;;0.60;;
2289;SDS011;1153;47.986;7.898;2024-03-06T06:26:23;0.90;;;0.60;;
2289;SDS011;1153;47.986;7.898;2024-03-06T06:28:48;0.83;;;0.63;;
2289;SDS011;1153;47.986;7.898;2024-03-06T06:31:13;1.70;;;0.97;;
2289;SDS011;1153;47.986;7.898;2024-03-06T06:33:38;2.00;;;0.70;;
2289;SDS011;1153;47.986;7.898;2024-03-06T06:36:04;0.90;;;0.60;;
2289;SDS011;1153;47.986;7.898;2024-03-06T06:38:29;0.97;;;0.67;;
2289;SDS011;1153;47.986;7.898;2024-03-06T06:40:55;0.93;;;0.70;;
2289;SDS011;1153;47.986;7.898;2024-03-06T06:43:20;1.67;;;1.47;;
2289;SDS011;1153;47.986;7.898;2024-03-06T06:45:45;2.17;;;1.30;;
2289;SDS011;1153;47.986;7.898;2024-03-06T06:48:10;1.00;;;0.70;;
2289;SDS011;1153;47.986;7.898;2024-03-06T06:50:36;1.30;;;1.20;;
2289;SDS011;1153;47.986;7.898;2024-03-06T06:53:01;1.40;;;1.30;;
2289;SDS011;1153;47.986;7.898;2024-03-06T06:55:26;1.20;;;1.00;;
2289;SDS011;1153;47.986;7.898;2024-03-06T06:57:51;1.93;;;0.70;;
2289;SDS011;1153;47.986;7.898;2024-03-06T07:00:17;1.00;;;0.87;;
2289;SDS011;1153;47.986;7.898;2024-03-06T07:02:44;1.00;;;0.60;;
2289;SDS011;1153;47.986;7.898;2024-03-06T07:05:10;1.43;;;0.70;;
2289;SDS011;1153;47.986;7.898;2024-03-06T07:07:35;2.20;;;0.77;;
2289;SDS011;1153;47.986;7.898;2024-03-06T07:10:04;0.70;;;0.47;;
2289;SDS011;1153;47.986;7.898;2024-03-06T07:12:29;0.80;;;0.47;;
2289;SDS011;1153;47.986;7.898;2024-03-06T07:14:55;1.67;;;1.57;;
2289;SDS011;1153;47.986;7.898;2024-03-06T07:17:20;1.17;;;1.07;;
2289;SDS011;1153;47.986;7.898;2024-03-06T07:19:45;1.17;;;1.07;;
2289;SDS011;1153;47.986;7.898;2024-03-06T07:22:10;3.30;;;1.00;;
2289;SDS011;1153;47.986;7.898;2024-03-06T07:24:36;0.80;;;0.40;;
2289;SDS011;1153;47.986;7.898;2024-03-06T07:27:02;0.70;;;0.40;;
2289;SDS011;1153;47.986;7.898;2024-03-06T07:29:27;0.80;;;0.40;;
2289;SDS011;1153;47.986;7.898;2024-03-06T07:31:52;4.07;;;0.40;;
2289;SDS011;1153;47.986;7.898;2024-03-06T07:34:18;0.80;;;0.40;;
2289;SDS011;1153;47.986;7.898;2024-03-06T07:36:44;0.70;;;0.40;;
2289;SDS011;1153;47.986;7.898;2024-03-06T07:39:11;0.77;;;0.40;;
2289;SDS011;1153;47.986;7.898;2024-03-06T07:41:37;0.67;;;0.40;;
2289;SDS011;1153;47.986;7.898;2024-03-06T07:44:02;0.70;;;0.50;;
2289;SDS011;1153;47.986;7.898;2024-03-06T07:46:27;0.90;;;0.50;;
2289;SDS011;1153;47.986;7.898;2024-03-06T07:48:53;0.90;;;0.40;;
2289;SDS011;1153;47.986;7.898;2024-03-06T07:51:18;1.20;;;0.43;;
2289;SDS011;1153;47.986;7.898;2024-03-06T07:53:43;0.63;;;0.30;;
2289;SDS011;1153;47.986;7.898;2024-03-06T07:56:11;1.47;;;0.30;;
2289;SDS011;1153;47.986;7.898;2024-03-06T07:58:37;3.43;;;0.40;;
2289;SDS011;1153;47.986;7.898;2024-03-06T08:01:02;0.60;;;0.30;;
2289;SDS011;1153;47.986;7.898;2024-03-06T08:03:27;0.80;;;0.40;;
2289;SDS011;1153;47.986;7.898;2024-03-06T08:05:53;0.90;;;0.43;;
2289;SDS011;1153;47.986;7.898;2024-03-06T08:08:19;0.80;;;0.50;;
2289;SDS011;1153;47.986;7.898;2024-03-06T08:10:44;0.77;;;0.40;;
2289;SDS011;1153;47.986;7.898;2024-03-06T08:13:12;2.43;;;0.83;;
2289;SDS011;1153;47.986;7.898;2024-03-06T08:15:37;1.00;;;0.70;;
2289;SDS011;1153;47.986;7.898;2024-03-06T08:18:02;1.40;;;1.30;;
2289;SDS011;1153;47.986;7.898;2024-03-06T08:20:31;2.73;;;1.20;;
2289;SDS011;1153;47.986;7.898;2024-03-06T08:22:56;3.13;;;0.97;;
2289;SDS011;1153;47.986;7.898;2024-03-06T08:25:21;0.77;;;0.50;;
2289;SDS011;1153;47.986;7.898;2024-03-06T08:27:46;0.90;;;0.50;;
2289;SDS011;1153;47.986;7.898;2024-03-06T08:30:12;1.13;;;0.70;;
2289;SDS011;1153;47.986;7.898;2024-03-06T08:32:38;0.70;;;0.40;;
2289;SDS011;1153;47.986;7.898;2024-03-06T08:35:08;0.70;;;0.47;;
2289;SDS011;1153;47.986;7.898;2024-03-06T08:37:36;0.90;;;0.40;;
2289;SDS011;1153;47.986;7.898;2024-03-06T08:40:01;0.70;;;0.40;;
2289;SDS011;1153;47.986;7.898;2024-03-06T08:42:27;0.60;;;0.40;;
2289;SDS011;1153;47.986;7.898;2024-03-06T08:44:52;0.80;;;0.40;;
2289;SDS011;1153;47.986;7.898;2024-03-06T08:47:18;2.40;;;0.43;;
2289;SDS011;1153;47.986;7.898;2024-03-06T08:49:43;0.77;;;0.40;;
2289;SDS011;1153;47.986;7.898;2024-03-06T08:52:08;0.70;;;0.37;;
2289;SDS011;1153;47.986;7.898;2024-03-06T08:54:34;2.30;;;0.40;;
2289;SDS011;1153;47.986;7.898;2024-03-06T08:57:00;0.70;;;0.40;;
2289;SDS011;1153;47.986;7.898;2024-03-06T08:59:25;0.70;;;0.40;;
2289;SDS011;1153;47.986;7.898;2024-03-06T09:01:53;2.70;;;1.90;;
2289;SDS011;1153;47.986;7.898;2024-03-06T09:04:19;4.77;;;1.17;;
2289;SDS011;1153;47.986;7.898;2024-03-06T09:06:44;0.80;;;0.50;;
2289;SDS011;1153;47.986;7.898;2024-03-06T09:09:09;0.80;;;0.50;;
2289;SDS011;1153;47.986;7.898;2024-03-06T09:11:34;0.95;;;0.35;;
2289;SDS011;1153;47.986;7.898;2024-03-06T09:14:00;0.63;;;0.30;;
2289;SDS011;1153;47.986;7.898;2024-03-06T09:16:25;0.60;;;0.30;;
2289;SDS011;1153;47.986;7.898;2024-03-06T09:18:50;0.60;;;0.40;;
2289;SDS011;1153;47.986;7.898;2024-03-06T09:21:15;0.70;;;0.40;;
2289;SDS011;1153;47.986;7.898;2024-03-06T09:23:40;0.63;;;0.32;;
2289;SDS011;1153;47.986;7.898;2024-03-06T09:26:06;0.60;;;0.30;;
2289;SDS011;1153;47.986;7.898;2024-03-06T09:28:31;0.65;;;0.30;;
2289;SDS011;1153;47.986;7.898;2024-03-06T09:30:56;0.50;;;0.30;;
2289;SDS011;1153;47.986;7.898;2024-03-06T09:33:22;1.97;;;0.40;;
2289;SDS011;1153;47.986;7.898;2024-03-06T09:35:47;0.93;;;0.70;;
2289;SDS011;1153;47.986;7.898;2024-03-06T09:38:12;1.33;;;0.60;;
2289;SDS011;1153;47.986;7.898;2024-03-06T09:40:41;0.87;;;0.50;;
2289;SDS011;1153;47.986;7.898;2024-03-06T09:43:06;0.90;;;0.70;;
2289;SDS011;1153;47.986;7.898;2024-03-06T09:45:32;0.87;;;0.40;;
2289;SDS011;1153;47.986;7.898;2024-03-06T09:47:57;0.63;;;0.40;;
2289;SDS011;1153;47.986;7.898;2024-03-06T09:50:23;0.73;;;0.40;;
2289;SDS011;1153;47.986;7.898;2024-03-06T09:52:50;0.50;;;0.30;;
2289;SDS011;1153;47.986;7.898;2024-03-06T09:55:16;0.90;;;0.40;;
2289;SDS011;1153;47.986;7.898;2024-03-06T09:57:43;0.70;;;0.30;;
2289;SDS011;1153;47.986;7.898;2024-03-06T10:00:08;0.70;;;0.30;;
2289;SDS011;1153;47.986;7.898;2024-03-06T10:02:37;0.67;;;0.40;;
2289;SDS011;1153;47.986;7.898;2024-03-06T10:05:03;0.63;;;0.40;;
2289;SDS011;1153;47.986;7.898;2024-03-06T10:07:28;0.80;;;0.50;;
2289;SDS011;1153;47.986;7.898;2024-03-06T10:09:54;0.80;;;0.40;;
2289;SDS011;1153;47.986;7.898;2024-03-06T10:12:20;0.73;;;0.50;;
2289;SDS011;1153;47.986;7.898;2024-03-06T10:14:52;1.23;;;0.40;;
2289;SDS011;1153;47.986;7.898;2024-03-06T10:17:20;1.10;;;0.60;;
2289;SDS011;1153;47.986;7.898;2024-03-06T10:19:48;0.80;;;0.47;;
2289;SDS011;1153;47.986;7.898;2024-03-06T10:22:16;0.97;;;0.37;;
2289;SDS011;1153;47.986;7.898;2024-03-06T10:24:42;0.60;;;0.40;;
2289;SDS011;1153;47.986;7.898;2024-03-06T10:27:07;0.60;;;0.30;;
2289;SDS011;1153;47.986;7.898;2024-03-06T10:29:32;1.03;;;0.40;;
2289;SDS011;1153;47.986;7.898;2024-03-06T10:31:58;0.70;;;0.40;;
2289;SDS011;1153;47.986;7.898;2024-03-06T10:34:24;0.87;;;0.50;;
2289;SDS011;1153;47.986;7.898;2024-03-06T10:39:21;0.60;;;0.40;;
2289;SDS011;1153;47.986;7.898;2024-03-06T10:41:48;6.23;;;0.40;;
2289;SDS011;1153;47.986;7.898;2024-03-06T10:44:16;0.60;;;0.30;;
2289;SDS011;1153;47.986;7.898;2024-03-06T10:46:43;0.73;;;0.30;;
2289;SDS011;1153;47.986;7.898;2024-03-06T10:49:09;0.60;;;0.40;;
2289;SDS011;1153;47.986;7.898;2024-03-06T10:51:36;0.70;;;0.40;;
2289;SDS011;1153;47.986;7.898;2024-03-06T10:54:02;0.60;;;0.30;;
2289;SDS011;1153;47.986;7.898;2024-03-06T10:56:28;0.60;;;0.40;;
2289;SDS011;1153;47.986;7.898;2024-03-06T10:58:55;0.70;;;0.40;;
2289;SDS011;1153;47.986;7.898;2024-03-06T11:01:21;0.70;;;0.40;;
2289;SDS011;1153;47.986;7.898;2024-03-06T11:03:47;0.93;;;0.40;;
2289;SDS011;1153;47.986;7.898;2024-03-06T11:06:13;0.70;;;0.40;;
2289;SDS011;1153;47.986;7.898;2024-03-06T11:08:38;0.73;;;0.40;;
2289;SDS011;1153;47.986;7.898;2024-03-06T11:11:19;0.97;;;0.37;;
2289;SDS011;1153;47.986;7.898;2024-03-06T11:13:46;3.40;;;0.30;;
2289;SDS011;1153;47.986;7.898;2024-03-06T11:16:12;1.00;;;0.30;;
2289;SDS011;1153;47.986;7.898;2024-03-06T11:23:28;0.70;;;0.30;;
2289;SDS011;1153;47.986;7.898;2024-03-06T11:28:20;0.93;;;0.32;;
2289;SDS011;1153;47.986;7.898;2024-03-06T11:30:46;0.67;;;0.40;;
2289;SDS011;1153;47.986;7.898;2024-03-06T11:33:12;1.23;;;0.30;;
2289;SDS011;1153;47.986;7.898;2024-03-06T11:35:38;1.00;;;0.40;;
2289;SDS011;1153;47.986;7.898;2024-03-06T11:38:05;0.70;;;0.30;;
2289;SDS011;1153;47.986;7.898;2024-03-06T11:40:31;0.50;;;0.30;;
2289;SDS011;1153;47.986;7.898;2024-03-06T11:42:56;0.60;;;0.33;;
2289;SDS011;1153;47.986;7.898;2024-03-06T11:45:21;1.00;;;0.60;;
2289;SDS011;1153;47.986;7.898;2024-03-06T11:47:59;0.60;;;0.30;;
2289;SDS011;1153;47.986;7.898;2024-03-06T11:50:28;0.60;;;0.30;;
2289;SDS011;1153;47.986;7.898;2024-03-06T11:52:55;0.60;;;0.20;;
2289;SDS011;1153;47.986;7.898;2024-03-06T11:55:20;0.60;;;0.30;;
2289;SDS011;1153;47.986;7.898;2024-03-06T11:57:46;0.53;;;0.27;;
2289;SDS011;1153;47.986;7.898;2024-03-06T12:00:11;0.77;;;0.30;;
2289;SDS011;1153;47.986;7.898;2024-03-06T12:02:37;0.60;;;0.30;;
2289;SDS011;1153;47.986;7.898;2024-03-06T12:05:02;0.77;;;0.40;;
2289;SDS011;1153;47.986;7.898;2024-03-06T12:07:28;0.60;;;0.20;;
2289;SDS011;1153;47.986;7.898;2024-03-06T12:09:53;0.90;;;0.77;;
2289;SDS011;1153;47.986;7.898;2024-03-06T12:12:18;1.87;;;0.30;;
2289;SDS011;1153;47.986;7.898;2024-03-06T12:14:43;0.70;;;0.40;;
2289;SDS011;1153;47.986;7.898;2024-03-06T12:17:20;0.90;;;0.30;;
2289;SDS011;1153;47.986;7.898;2024-03-06T12:19:45;0.50;;;0.23;;
2289;SDS011;1153;47.986;7.898;2024-03-06T12:22:10;0.80;;;0.40;;
2289;SDS011;1153;47.986;7.898;2024-03-06T12:24:35;2.30;;;0.40;;
2289;SDS011;1153;47.986;7.898;2024-03-06T12:27:01;0.80;;;0.30;;
2289;SDS011;1153;47.986;7.898;2024-03-06T12:29:27;0.70;;;0.40;;
2289;SDS011;1153;47.986;7.898;2024-03-06T12:31:53;0.40;;;0.20;;
2289;SDS011;1153;47.986;7.898;2024-03-06T12:34:18;1.30;;;0.30;;
2289;SDS011;1153;47.986;7.898;2024-03-06T12:36:43;0.70;;;0.30;;
2289;SDS011;1153;47.986;7.898;2024-03-06T12:39:08;1.00;;;0.30;;
2289;SDS011;1153;47.986;7.898;2024-03-06T12:41:38;3.27;;;0.30;;
2289;SDS011;1153;47.986;7.898;2024-03-06T12:44:03;0.70;;;0.30;;
2289;SDS011;1153;47.986;7.898;2024-03-06T12:46:28;1.70;;;0.32;;
2289;SDS011;1153;47.986;7.898;2024-03-06T12:48:55;0.50;;;0.20;;
2289;SDS011;1153;47.986;7.898;2024-03-06T12:51:20;0.60;;;0.30;;
2289;SDS011;1153;47.986;7.898;2024-03-06T12:53:45;0.70;;;0.30;;
2289;SDS011;1153;47.986;7.898;2024-03-06T12:56:10;0.97;;;0.30;;
2289;SDS011;1153;47.986;7.898;2024-03-06T12:58:35;1.07;;;0.30;;
2289;SDS011;1153;47.986;7.898;2024-03-06T13:01:01;1.90;;;0.30;;
2289;SDS011;1153;47.986;7.898;2024-03-06T13:03:26;0.87;;;0.40;;
2289;SDS011;1153;47.986;7.898;2024-03-06T13:05:52;8.30;;;1.10;;
2289;SDS011;1153;47.986;7.898;2024-03-06T13:08:17;2.08;;;0.98;;
2289;SDS011;1153;47.986;7.898;2024-03-06T13:10:42;1.37;;;1.27;;
2289;SDS011;1153;47.986;7.898;2024-03-06T13:13:07;2.37;;;1.40;;
2289;SDS011;1153;47.986;7.898;2024-03-06T13:15:33;1.40;;;0.60;;
2289;SDS011;1153;47.986;7.898;2024-03-06T13:18:02;2.07;;;0.80;;
2289;SDS011;1153;47.986;7.898;2024-03-06T13:20:28;1.90;;;1.10;;
2289;SDS011;1153;47.986;7.898;2024-03-06T13:22:53;3.10;;;0.60;;
2289;SDS011;1153;47.986;7.898;2024-03-06T13:25:19;1.00;;;0.50;;
2289;SDS011;1153;47.986;7.898;2024-03-06T13:27:44;1.17;;;0.70;;
2289;SDS011;1153;47.986;7.898;2024-03-06T13:30:10;1.13;;;0.47;;
2289;SDS011;1153;47.986;7.898;2024-03-06T13:32:35;1.10;;;0.60;;
2289;SDS011;1153;47.986;7.898;2024-03-06T13:35:00;1.20;;;0.80;;
2289;SDS011;1153;47.986;7.898;2024-03-06T13:37:26;1.10;;;0.60;;
2289;SDS011;1153;47.986;7.898;2024-03-06T13:39:51;0.85;;;0.50;;
2289;SDS011;1153;47.986;7.898;2024-03-06T13:42:17;5.73;;;0.90;;
2289;SDS011;1153;47.986;7.898;2024-03-06T13:44:42;3.27;;;0.60;;
2289;SDS011;1153;47.986;7.898;2024-03-06T13:47:14;4.60;;;0.60;;
2289;SDS011;1153;47.986;7.898;2024-03-06T13:49:40;1.20;;;1.00;;
2289;SDS011;1153;47.986;7.898;2024-03-06T13:52:06;3.23;;;0.80;;
2289;SDS011;1153;47.986;7.898;2024-03-06T13:54:32;1.00;;;0.60;;
2289;SDS011;1153;47.986;7.898;2024-03-06T13:56:57;0.90;;;0.60;;
2289;SDS011;1153;47.986;7.898;2024-03-06T13:59:27;0.80;;;0.50;;
2289;SDS011;1153;47.986;7.898;2024-03-06T14:01:52;4.30;;;0.77;;
2289;SDS011;1153;47.986;7.898;2024-03-06T14:04:18;1.00;;;0.50;;
2289;SDS011;1153;47.986;7.898;2024-03-06T14:06:44;2.33;;;0.50;;
2289;SDS011;1153;47.986;7.898;2024-03-06T14:09:09;0.95;;;0.50;;
2289;SDS011;1153;47.986;7.898;2024-03-06T14:11:34;1.17;;;0.70;;
2289;SDS011;1153;47.986;7.898;2024-03-06T14:14:00;1.10;;;0.73;;
2289;SDS011;1153;47.986;7.898;2024-03-06T14:16:25;1.00;;;0.60;;
2289;SDS011;1153;47.986;7.898;2024-03-06T14:18:51;7.80;;;0.83;;
2289;SDS011;1153;47.986;7.898;2024-03-06T14:21:16;1.10;;;0.67;;
2289;SDS011;1153;47.986;7.898;2024-03-06T14:23:41;1.37;;;0.70;;
2289;SDS011;1153;47.986;7.898;2024-03-06T14:26:06;1.97;;;0.70;;
2289;SDS011;1153;47.986;7.898;2024-03-06T14:28:31;4.83;;;0.70;;
2289;SDS011;1153;47.986;7.898;2024-03-06T14:30:57;1.07;;;0.50;;
2289;SDS011;1153;47.986;7.898;2024-03-06T14:33:22;1.97;;;0.57;;
2289;SDS011;1153;47.986;7.898;2024-03-06T14:35:47;1.33;;;0.90;;
2289;SDS011;1153;47.986;7.898;2024-03-06T14:38:14;2.00;;;0.63;;
2289;SDS011;1153;47.986;7.898;2024-03-06T14:40:39;1.70;;;0.43;;
2289;SDS011;1153;47.986;7.898;2024-03-06T14:43:04;3.70;;;0.50;;
2289;SDS011;1153;47.986;7.898;2024-03-06T14:45:34;1.00;;;0.63;;
2289;SDS011;1153;47.986;7.898;2024-03-06T14:47:59;1.00;;;0.60;;
2289;SDS011;1153;47.986;7.898;2024-03-06T14:50:24;1.17;;;0.50;;
2289;SDS011;1153;47.986;7.898;2024-03-06T14:52:49;2.13;;;0.93;;
2289;SDS011;1153;47.986;7.898;2024-03-06T14:55:14;2.00;;;0.77;;
2289;SDS011;1153;47.986;7.898;2024-03-06T14:57:40;1.10;;;0.73;;
2289;SDS011;1153;47.986;7.898;2024-03-06T15:00:05;1.90;;;0.50;;
2289;SDS011;1153;47.986;7.898;2024-03-06T15:02:32;0.97;;;0.50;;
2289;SDS011;1153;47.986;7.898;2024-03-06T15:04:57;3.17;;;0.73;;
2289;SDS011;1153;47.986;7.898;2024-03-06T15:07:23;1.60;;;0.87;;
2289;SDS011;1153;47.986;7.898;2024-03-06T15:09:48;0.80;;;0.50;;
2289;SDS011;1153;47.986;7.898;2024-03-06T15:12:13;3.83;;;0.73;;
2289;SDS011;1153;47.986;7.898;2024-03-06T15:14:38;1.00;;;0.90;;
2289;SDS011;1153;47.986;7.898;2024-03-06T15:17:04;2.30;;;0.53;;
2289;SDS011;1153;47.986;7.898;2024-03-06T15:19:29;0.93;;;0.50;;
2289;SDS011;1153;47.986;7.898;2024-03-06T15:21:54;2.42;;;0.77;;